sensor_id;sensor_type;location;lat;lon;timestamp;P1;durP1;ratioP1;P2;durP2;ratioP2
27438;SDS011;14887;51.252;7.470;2022-10-31T00:01:42;13.43;;;5.97;;
27438;SDS011;14887;51.252;7.470;2022-10-31T00:04:09;24.60;;;5.80;;
27438;SDS011;14887;51.252;7.470;2022-10-31T00:06:35;13.47;;;5.70;;
27438;SDS011;14887;51.252;7.470;2022-10-31T00:09:02;13.67;;;5.37;;
27438;SDS011;14887;51.252;7.470;2022-10-31T00:11:28;14.73;;;6.23;;
27438;SDS011;14887;51.252;7.470;2022-10-31T00:13:54;21.10;;;7.40;;
27438;SDS011;14887;51.252;7.470;2022-10-31T00:16:23;20.93;;;6.70;;
27438;SDS011;14887;51.252;7.470;2022-10-31T00:18:53;12.73;;;5.40;;
27438;SDS011;14887;51.252;7.470;2022-10-31T00:21:19;16.23;;;6.17;;
27438;SDS011;14887;51.252;7.470;2022-10-31T00:23:46;21.97;;;6.37;;
27438;SDS011;14887;51.252;7.470;2022-10-31T00:26:12;15.40;;;7.10;;
27438;SDS011;14887;51.252;7.470;2022-10-31T00:28:38;19.30;;;6.63;;
27438;SDS011;14887;51.252;7.470;2022-10-31T00:31:06;16.50;;;6.80;;
27438;SDS011;14887;51.252;7.470;2022-10-31T00:33:35;14.30;;;7.37;;
27438;SDS011;14887;51.252;7.470;2022-10-31T00:36:02;21.30;;;6.50;;
27438;SDS011;14887;51.252;7.470;2022-10-31T00:38:29;17.37;;;6.27;;
27438;SDS011;14887;51.252;7.470;2022-10-31T00:40:55;27.97;;;7.80;;
27438;SDS011;14887;51.252;7.470;2022-10-31T00:43:21;18.50;;;7.17;;
27438;SDS011;14887;51.252;7.470;2022-10-31T00:45:47;21.50;;;8.00;;
27438;SDS011;14887;51.252;7.470;2022-10-31T00:48:13;11.07;;;6.50;;
27438;SDS011;14887;51.252;7.470;2022-10-31T00:50:39;17.10;;;7.80;;
27438;SDS011;14887;51.252;7.470;2022-10-31T00:53:05;18.60;;;7.40;;
27438;SDS011;14887;51.252;7.470;2022-10-31T00:55:31;19.87;;;8.43;;
27438;SDS011;14887;51.252;7.470;2022-10-31T00:57:57;19.33;;;7.93;;
27438;SDS011;14887;51.252;7.470;2022-10-31T01:00:23;19.47;;;8.37;;
27438;SDS011;14887;51.252;7.470;2022-10-31T01:02:49;16.90;;;9.10;;
27438;SDS011;14887;51.252;7.470;2022-10-31T01:05:15;15.43;;;7.60;;
27438;SDS011;14887;51.252;7.470;2022-10-31T01:07:41;29.73;;;8.60;;
27438;SDS011;14887;51.252;7.470;2022-10-31T01:10:08;21.27;;;8.70;;
27438;SDS011;14887;51.252;7.470;2022-10-31T01:12:38;17.93;;;7.40;;
27438;SDS011;14887;51.252;7.470;2022-10-31T01:15:04;23.57;;;7.97;;
27438;SDS011;14887;51.252;7.470;2022-10-31T01:17:30;24.67;;;8.30;;
27438;SDS011;14887;51.252;7.470;2022-10-31T01:19:56;21.23;;;8.50;;
27438;SDS011;14887;51.252;7.470;2022-10-31T01:22:22;16.50;;;8.00;;
27438;SDS011;14887;51.252;7.470;2022-10-31T01:24:48;27.00;;;9.63;;
27438;SDS011;14887;51.252;7.470;2022-10-31T01:27:14;24.57;;;9.10;;
27438;SDS011;14887;51.252;7.470;2022-10-31T01:29:40;15.33;;;8.17;;
27438;SDS011;14887;51.252;7.470;2022-10-31T01:32:06;26.70;;;8.83;;
27438;SDS011;14887;51.252;7.470;2022-10-31T01:34:32;22.30;;;8.93;;
27438;SDS011;14887;51.252;7.470;2022-10-31T01:36:58;21.87;;;10.20;;
27438;SDS011;14887;51.252;7.470;2022-10-31T01:39:24;18.03;;;8.10;;
27438;SDS011;14887;51.252;7.470;2022-10-31T01:41:51;21.37;;;9.87;;
27438;SDS011;14887;51.252;7.470;2022-10-31T01:46:48;36.93;;;10.53;;
27438;SDS011;14887;51.252;7.470;2022-10-31T01:51:45;22.30;;;8.40;;
27438;SDS011;14887;51.252;7.470;2022-10-31T01:54:14;32.83;;;8.57;;
27438;SDS011;14887;51.252;7.470;2022-10-31T01:56:42;18.07;;;8.23;;
27438;SDS011;14887;51.252;7.470;2022-10-31T01:59:11;26.00;;;9.73;;
27438;SDS011;14887;51.252;7.470;2022-10-31T02:01:38;16.97;;;8.07;;
27438;SDS011;14887;51.252;7.470;2022-10-31T02:04:04;32.13;;;8.37;;
27438;SDS011;14887;51.252;7.470;2022-10-31T02:09:29;18.47;;;9.00;;
27438;SDS011;14887;51.252;7.470;2022-10-31T02:11:57;22.40;;;9.93;;
27438;SDS011;14887;51.252;7.470;2022-10-31T02:14:24;33.13;;;9.80;;
27438;SDS011;14887;51.252;7.470;2022-10-31T02:16:51;23.83;;;10.13;;
27438;SDS011;14887;51.252;7.470;2022-10-31T02:19:19;20.00;;;9.80;;
27438;SDS011;14887;51.252;7.470;2022-10-31T02:21:50;31.20;;;11.33;;
27438;SDS011;14887;51.252;7.470;2022-10-31T02:30:10;27.13;;;11.07;;
27438;SDS011;14887;51.252;7.470;2022-10-31T02:40:39;25.43;;;10.10;;
27438;SDS011;14887;51.252;7.470;2022-10-31T02:45:50;31.03;;;9.50;;
27438;SDS011;14887;51.252;7.470;2022-10-31T02:48:22;17.53;;;8.57;;
27438;SDS011;14887;51.252;7.470;2022-10-31T02:50:51;24.97;;;10.07;;
27438;SDS011;14887;51.252;7.470;2022-10-31T02:53:18;26.80;;;10.00;;
27438;SDS011;14887;51.252;7.470;2022-10-31T02:55:56;26.97;;;11.70;;
27438;SDS011;14887;51.252;7.470;2022-10-31T02:58:24;29.87;;;11.07;;
27438;SDS011;14887;51.252;7.470;2022-10-31T03:06:23;27.47;;;11.53;;
27438;SDS011;14887;51.252;7.470;2022-10-31T03:09:06;35.10;;;13.10;;
27438;SDS011;14887;51.252;7.470;2022-10-31T03:11:39;31.40;;;13.07;;
27438;SDS011;14887;51.252;7.470;2022-10-31T03:14:17;29.30;;;12.50;;
27438;SDS011;14887;51.252;7.470;2022-10-31T03:16:50;32.60;;;12.80;;
27438;SDS011;14887;51.252;7.470;2022-10-31T03:19:26;26.80;;;12.33;;
27438;SDS011;14887;51.252;7.470;2022-10-31T03:22:35;38.43;;;12.30;;
27438;SDS011;14887;51.252;7.470;2022-10-31T03:24:42;44.27;;;12.33;;
27438;SDS011;14887;51.252;7.470;2022-10-31T03:27:09;34.33;;;13.73;;
27438;SDS011;14887;51.252;7.470;2022-10-31T03:29:37;39.13;;;13.60;;
27438;SDS011;14887;51.252;7.470;2022-10-31T03:32:12;34.90;;;12.80;;
27438;SDS011;14887;51.252;7.470;2022-10-31T03:34:39;37.77;;;12.07;;
27438;SDS011;14887;51.252;7.470;2022-10-31T03:37:07;25.43;;;10.10;;
27438;SDS011;14887;51.252;7.470;2022-10-31T03:39:34;28.97;;;11.20;;
27438;SDS011;14887;51.252;7.470;2022-10-31T03:42:04;28.90;;;12.60;;
27438;SDS011;14887;51.252;7.470;2022-10-31T03:44:32;34.27;;;12.20;;
27438;SDS011;14887;51.252;7.470;2022-10-31T03:46:58;34.57;;;11.73;;
27438;SDS011;14887;51.252;7.470;2022-10-31T03:49:25;27.40;;;12.53;;
27438;SDS011;14887;51.252;7.470;2022-10-31T03:54:37;23.60;;;10.90;;
27438;SDS011;14887;51.252;7.470;2022-10-31T03:57:07;24.47;;;11.63;;
27438;SDS011;14887;51.252;7.470;2022-10-31T03:59:41;29.90;;;11.23;;
27438;SDS011;14887;51.252;7.470;2022-10-31T04:02:13;26.93;;;12.80;;
27438;SDS011;14887;51.252;7.470;2022-10-31T04:04:40;31.23;;;11.30;;
27438;SDS011;14887;51.252;7.470;2022-10-31T04:07:06;33.40;;;11.30;;
27438;SDS011;14887;51.252;7.470;2022-10-31T04:09:33;32.67;;;11.80;;
27438;SDS011;14887;51.252;7.470;2022-10-31T04:12:00;32.67;;;11.77;;
27438;SDS011;14887;51.252;7.470;2022-10-31T04:14:27;31.53;;;11.67;;
27438;SDS011;14887;51.252;7.470;2022-10-31T04:16:55;30.30;;;10.83;;
27438;SDS011;14887;51.252;7.470;2022-10-31T04:19:21;36.83;;;11.90;;
27438;SDS011;14887;51.252;7.470;2022-10-31T04:21:47;26.80;;;10.90;;
27438;SDS011;14887;51.252;7.470;2022-10-31T04:24:13;29.80;;;10.83;;
27438;SDS011;14887;51.252;7.470;2022-10-31T04:26:39;26.00;;;10.97;;
27438;SDS011;14887;51.252;7.470;2022-10-31T04:29:05;29.70;;;11.33;;
27438;SDS011;14887;51.252;7.470;2022-10-31T04:31:31;35.03;;;12.13;;
27438;SDS011;14887;51.252;7.470;2022-10-31T04:33:57;28.10;;;12.43;;
27438;SDS011;14887;51.252;7.470;2022-10-31T04:36:23;37.17;;;12.27;;
27438;SDS011;14887;51.252;7.470;2022-10-31T04:38:49;33.47;;;12.87;;
27438;SDS011;14887;51.252;7.470;2022-10-31T04:41:15;28.40;;;11.03;;
27438;SDS011;14887;51.252;7.470;2022-10-31T04:43:41;36.10;;;14.20;;
27438;SDS011;14887;51.252;7.470;2022-10-31T04:46:07;35.70;;;13.80;;
27438;SDS011;14887;51.252;7.470;2022-10-31T04:48:33;51.83;;;13.43;;
27438;SDS011;14887;51.252;7.470;2022-10-31T04:50:59;37.67;;;12.60;;
27438;SDS011;14887;51.252;7.470;2022-10-31T04:53:25;24.50;;;13.20;;
27438;SDS011;14887;51.252;7.470;2022-10-31T04:55:51;32.07;;;11.93;;
27438;SDS011;14887;51.252;7.470;2022-10-31T04:58:17;42.93;;;13.00;;
27438;SDS011;14887;51.252;7.470;2022-10-31T05:00:43;32.63;;;12.33;;
27438;SDS011;14887;51.252;7.470;2022-10-31T05:03:09;42.10;;;13.33;;
27438;SDS011;14887;51.252;7.470;2022-10-31T05:05:35;25.93;;;11.13;;
27438;SDS011;14887;51.252;7.470;2022-10-31T05:08:01;32.87;;;11.67;;
27438;SDS011;14887;51.252;7.470;2022-10-31T05:10:28;36.97;;;12.80;;
27438;SDS011;14887;51.252;7.470;2022-10-31T05:12:55;30.33;;;11.53;;
27438;SDS011;14887;51.252;7.470;2022-10-31T05:15:22;27.00;;;11.97;;
27438;SDS011;14887;51.252;7.470;2022-10-31T05:17:49;29.80;;;12.73;;
27438;SDS011;14887;51.252;7.470;2022-10-31T05:20:15;34.17;;;13.27;;
27438;SDS011;14887;51.252;7.470;2022-10-31T05:22:45;32.17;;;11.83;;
27438;SDS011;14887;51.252;7.470;2022-10-31T05:25:11;30.40;;;12.73;;
27438;SDS011;14887;51.252;7.470;2022-10-31T05:27:44;28.20;;;12.83;;
27438;SDS011;14887;51.252;7.470;2022-10-31T05:30:11;36.23;;;13.70;;
27438;SDS011;14887;51.252;7.470;2022-10-31T05:32:38;29.80;;;13.27;;
27438;SDS011;14887;51.252;7.470;2022-10-31T05:35:04;36.17;;;14.50;;
27438;SDS011;14887;51.252;7.470;2022-10-31T05:37:33;30.07;;;13.60;;
27438;SDS011;14887;51.252;7.470;2022-10-31T05:39:59;32.93;;;14.20;;
27438;SDS011;14887;51.252;7.470;2022-10-31T05:42:25;41.90;;;13.83;;
27438;SDS011;14887;51.252;7.470;2022-10-31T05:44:50;35.10;;;14.40;;
27438;SDS011;14887;51.252;7.470;2022-10-31T05:47:16;27.23;;;12.30;;
27438;SDS011;14887;51.252;7.470;2022-10-31T05:49:42;47.60;;;13.60;;
27438;SDS011;14887;51.252;7.470;2022-10-31T05:52:08;31.20;;;13.67;;
27438;SDS011;14887;51.252;7.470;2022-10-31T05:54:34;35.67;;;13.30;;
27438;SDS011;14887;51.252;7.470;2022-10-31T05:57:00;38.33;;;16.47;;
27438;SDS011;14887;51.252;7.470;2022-10-31T05:59:26;42.50;;;14.50;;
27438;SDS011;14887;51.252;7.470;2022-10-31T06:01:52;36.97;;;14.80;;
27438;SDS011;14887;51.252;7.470;2022-10-31T06:04:18;37.20;;;14.53;;
27438;SDS011;14887;51.252;7.470;2022-10-31T06:06:44;35.53;;;12.80;;
27438;SDS011;14887;51.252;7.470;2022-10-31T06:09:10;56.77;;;16.50;;
27438;SDS011;14887;51.252;7.470;2022-10-31T06:11:36;43.87;;;15.03;;
27438;SDS011;14887;51.252;7.470;2022-10-31T06:14:03;46.37;;;15.40;;
27438;SDS011;14887;51.252;7.470;2022-10-31T06:16:29;52.37;;;16.47;;
27438;SDS011;14887;51.252;7.470;2022-10-31T06:18:55;40.50;;;14.23;;
27438;SDS011;14887;51.252;7.470;2022-10-31T06:21:21;32.30;;;14.17;;
27438;SDS011;14887;51.252;7.470;2022-10-31T06:23:47;52.07;;;15.93;;
27438;SDS011;14887;51.252;7.470;2022-10-31T06:26:13;49.43;;;17.57;;
27438;SDS011;14887;51.252;7.470;2022-10-31T06:28:39;48.07;;;17.30;;
27438;SDS011;14887;51.252;7.470;2022-10-31T06:31:05;54.07;;;18.10;;
27438;SDS011;14887;51.252;7.470;2022-10-31T06:33:31;47.33;;;16.10;;
27438;SDS011;14887;51.252;7.470;2022-10-31T06:35:57;41.10;;;15.40;;
27438;SDS011;14887;51.252;7.470;2022-10-31T06:38:23;51.73;;;16.27;;
27438;SDS011;14887;51.252;7.470;2022-10-31T06:40:49;45.30;;;15.00;;
27438;SDS011;14887;51.252;7.470;2022-10-31T06:43:15;42.37;;;16.17;;
27438;SDS011;14887;51.252;7.470;2022-10-31T06:45:41;50.17;;;16.57;;
27438;SDS011;14887;51.252;7.470;2022-10-31T06:48:07;44.40;;;15.60;;
27438;SDS011;14887;51.252;7.470;2022-10-31T06:50:33;50.47;;;16.97;;
27438;SDS011;14887;51.252;7.470;2022-10-31T06:52:59;56.63;;;16.30;;
27438;SDS011;14887;51.252;7.470;2022-10-31T06:55:25;55.57;;;16.10;;
27438;SDS011;14887;51.252;7.470;2022-10-31T06:57:52;59.03;;;16.83;;
27438;SDS011;14887;51.252;7.470;2022-10-31T07:00:18;35.47;;;13.70;;
27438;SDS011;14887;51.252;7.470;2022-10-31T07:02:52;48.77;;;16.30;;
27438;SDS011;14887;51.252;7.470;2022-10-31T07:05:18;44.20;;;14.50;;
27438;SDS011;14887;51.252;7.470;2022-10-31T07:07:44;43.27;;;16.30;;
27438;SDS011;14887;51.252;7.470;2022-10-31T07:10:10;47.37;;;18.00;;
27438;SDS011;14887;51.252;7.470;2022-10-31T07:12:36;39.53;;;14.30;;
27438;SDS011;14887;51.252;7.470;2022-10-31T07:15:02;54.60;;;17.53;;
27438;SDS011;14887;51.252;7.470;2022-10-31T07:17:28;43.00;;;17.50;;
27438;SDS011;14887;51.252;7.470;2022-10-31T07:19:55;60.90;;;17.87;;
27438;SDS011;14887;51.252;7.470;2022-10-31T07:22:21;52.97;;;19.23;;
27438;SDS011;14887;51.252;7.470;2022-10-31T07:24:47;51.30;;;17.43;;
27438;SDS011;14887;51.252;7.470;2022-10-31T07:27:13;48.60;;;16.67;;
27438;SDS011;14887;51.252;7.470;2022-10-31T07:29:39;49.67;;;16.40;;
27438;SDS011;14887;51.252;7.470;2022-10-31T07:32:05;43.37;;;16.70;;
27438;SDS011;14887;51.252;7.470;2022-10-31T07:34:31;46.77;;;17.17;;
27438;SDS011;14887;51.252;7.470;2022-10-31T07:36:57;43.83;;;16.80;;
27438;SDS011;14887;51.252;7.470;2022-10-31T07:39:23;40.07;;;16.47;;
27438;SDS011;14887;51.252;7.470;2022-10-31T07:41:49;57.93;;;16.77;;
27438;SDS011;14887;51.252;7.470;2022-10-31T07:44:15;62.30;;;17.50;;
27438;SDS011;14887;51.252;7.470;2022-10-31T07:46:41;46.30;;;17.13;;
27438;SDS011;14887;51.252;7.470;2022-10-31T07:49:07;43.17;;;18.00;;
27438;SDS011;14887;51.252;7.470;2022-10-31T07:51:33;48.80;;;16.53;;
27438;SDS011;14887;51.252;7.470;2022-10-31T07:53:59;54.00;;;17.00;;
27438;SDS011;14887;51.252;7.470;2022-10-31T07:56:26;48.27;;;17.13;;
27438;SDS011;14887;51.252;7.470;2022-10-31T07:58:51;36.23;;;15.33;;
27438;SDS011;14887;51.252;7.470;2022-10-31T08:01:17;36.07;;;15.33;;
27438;SDS011;14887;51.252;7.470;2022-10-31T08:03:43;52.73;;;15.23;;
27438;SDS011;14887;51.252;7.470;2022-10-31T08:06:09;35.47;;;13.80;;
27438;SDS011;14887;51.252;7.470;2022-10-31T08:08:35;48.70;;;16.07;;
27438;SDS011;14887;51.252;7.470;2022-10-31T08:11:02;37.40;;;16.00;;
27438;SDS011;14887;51.252;7.470;2022-10-31T08:13:28;44.57;;;16.83;;
27438;SDS011;14887;51.252;7.470;2022-10-31T08:15:54;44.13;;;17.67;;
27438;SDS011;14887;51.252;7.470;2022-10-31T08:18:21;45.93;;;17.27;;
27438;SDS011;14887;51.252;7.470;2022-10-31T08:20:48;39.10;;;18.20;;
27438;SDS011;14887;51.252;7.470;2022-10-31T08:23:15;39.70;;;15.40;;
27438;SDS011;14887;51.252;7.470;2022-10-31T08:25:41;44.73;;;16.13;;
27438;SDS011;14887;51.252;7.470;2022-10-31T08:28:08;30.50;;;13.07;;
27438;SDS011;14887;51.252;7.470;2022-10-31T08:30:35;41.97;;;14.80;;
27438;SDS011;14887;51.252;7.470;2022-10-31T08:33:02;40.87;;;15.20;;
27438;SDS011;14887;51.252;7.470;2022-10-31T08:35:29;46.50;;;14.47;;
27438;SDS011;14887;51.252;7.470;2022-10-31T08:37:55;38.30;;;15.47;;
27438;SDS011;14887;51.252;7.470;2022-10-31T08:40:22;34.50;;;16.53;;
27438;SDS011;14887;51.252;7.470;2022-10-31T08:42:55;53.17;;;14.00;;
27438;SDS011;14887;51.252;7.470;2022-10-31T08:45:21;41.77;;;13.83;;
27438;SDS011;14887;51.252;7.470;2022-10-31T08:47:47;41.43;;;13.20;;
27438;SDS011;14887;51.252;7.470;2022-10-31T08:50:13;26.33;;;12.87;;
27438;SDS011;14887;51.252;7.470;2022-10-31T08:52:39;31.53;;;11.77;;
27438;SDS011;14887;51.252;7.470;2022-10-31T08:55:05;28.67;;;11.10;;
27438;SDS011;14887;51.252;7.470;2022-10-31T08:57:31;28.50;;;11.20;;
27438;SDS011;14887;51.252;7.470;2022-10-31T08:59:57;24.67;;;10.07;;
27438;SDS011;14887;51.252;7.470;2022-10-31T09:02:23;26.40;;;9.90;;
27438;SDS011;14887;51.252;7.470;2022-10-31T09:04:49;41.53;;;13.33;;
27438;SDS011;14887;51.252;7.470;2022-10-31T09:07:15;28.53;;;12.07;;
27438;SDS011;14887;51.252;7.470;2022-10-31T09:09:41;23.73;;;11.10;;
27438;SDS011;14887;51.252;7.470;2022-10-31T09:12:07;23.23;;;10.27;;
27438;SDS011;14887;51.252;7.470;2022-10-31T09:14:33;32.43;;;10.27;;
27438;SDS011;14887;51.252;7.470;2022-10-31T09:17:00;19.23;;;9.47;;
27438;SDS011;14887;51.252;7.470;2022-10-31T09:19:26;24.17;;;10.67;;
27438;SDS011;14887;51.252;7.470;2022-10-31T09:21:53;18.43;;;7.90;;
27438;SDS011;14887;51.252;7.470;2022-10-31T09:24:19;17.83;;;9.30;;
27438;SDS011;14887;51.252;7.470;2022-10-31T09:26:45;19.87;;;8.70;;
27438;SDS011;14887;51.252;7.470;2022-10-31T09:29:11;25.30;;;8.37;;
27438;SDS011;14887;51.252;7.470;2022-10-31T09:31:37;28.90;;;8.93;;
27438;SDS011;14887;51.252;7.470;2022-10-31T09:34:03;20.93;;;8.10;;
27438;SDS011;14887;51.252;7.470;2022-10-31T09:36:29;17.47;;;8.43;;
27438;SDS011;14887;51.252;7.470;2022-10-31T09:38:55;24.47;;;8.63;;
27438;SDS011;14887;51.252;7.470;2022-10-31T09:41:24;20.37;;;7.30;;
27438;SDS011;14887;51.252;7.470;2022-10-31T09:43:59;21.87;;;7.37;;
27438;SDS011;14887;51.252;7.470;2022-10-31T09:51:53;20.90;;;6.47;;
27438;SDS011;14887;51.252;7.470;2022-10-31T09:54:35;19.00;;;6.87;;
27438;SDS011;14887;51.252;7.470;2022-10-31T09:57:03;16.90;;;7.53;;
27438;SDS011;14887;51.252;7.470;2022-10-31T09:59:34;18.63;;;5.50;;
27438;SDS011;14887;51.252;7.470;2022-10-31T10:02:01;13.60;;;6.10;;
27438;SDS011;14887;51.252;7.470;2022-10-31T10:04:43;12.60;;;6.10;;
27438;SDS011;14887;51.252;7.470;2022-10-31T10:07:54;26.13;;;6.97;;
27438;SDS011;14887;51.252;7.470;2022-10-31T10:09:59;13.77;;;6.17;;
27438;SDS011;14887;51.252;7.470;2022-10-31T10:17:45;10.07;;;4.87;;
27438;SDS011;14887;51.252;7.470;2022-10-31T10:22:50;18.10;;;4.60;;
27438;SDS011;14887;51.252;7.470;2022-10-31T10:32:58;12.07;;;5.70;;
27438;SDS011;14887;51.252;7.470;2022-10-31T10:35:34;15.97;;;4.70;;
27438;SDS011;14887;51.252;7.470;2022-10-31T10:38:08;12.40;;;4.23;;
27438;SDS011;14887;51.252;7.470;2022-10-31T10:40:36;12.50;;;4.33;;
27438;SDS011;14887;51.252;7.470;2022-10-31T10:45:45;15.43;;;5.00;;
27438;SDS011;14887;51.252;7.470;2022-10-31T10:48:33;14.13;;;4.57;;
27438;SDS011;14887;51.252;7.470;2022-10-31T10:51:02;11.63;;;5.03;;
27438;SDS011;14887;51.252;7.470;2022-10-31T10:56:17;14.10;;;4.47;;
27438;SDS011;14887;51.252;7.470;2022-10-31T10:58:43;11.07;;;5.33;;
27438;SDS011;14887;51.252;7.470;2022-10-31T11:01:13;11.47;;;4.70;;
27438;SDS011;14887;51.252;7.470;2022-10-31T11:03:40;13.80;;;4.50;;
27438;SDS011;14887;51.252;7.470;2022-10-31T11:06:15;17.10;;;5.27;;
27438;SDS011;14887;51.252;7.470;2022-10-31T11:08:42;21.37;;;5.07;;
27438;SDS011;14887;51.252;7.470;2022-10-31T11:11:17;11.53;;;4.00;;
27438;SDS011;14887;51.252;7.470;2022-10-31T11:13:45;13.63;;;4.50;;
27438;SDS011;14887;51.252;7.470;2022-10-31T11:16:14;10.00;;;5.07;;
27438;SDS011;14887;51.252;7.470;2022-10-31T11:18:45;11.30;;;4.90;;
27438;SDS011;14887;51.252;7.470;2022-10-31T11:21:19;18.10;;;5.50;;
27438;SDS011;14887;51.252;7.470;2022-10-31T11:23:46;11.00;;;4.47;;
27438;SDS011;14887;51.252;7.470;2022-10-31T11:26:18;17.67;;;5.40;;
27438;SDS011;14887;51.252;7.470;2022-10-31T11:28:55;20.13;;;5.27;;
27438;SDS011;14887;51.252;7.470;2022-10-31T11:31:21;11.23;;;5.10;;
27438;SDS011;14887;51.252;7.470;2022-10-31T11:33:48;15.80;;;4.87;;
27438;SDS011;14887;51.252;7.470;2022-10-31T11:36:22;10.70;;;4.90;;
27438;SDS011;14887;51.252;7.470;2022-10-31T11:38:48;21.57;;;5.27;;
27438;SDS011;14887;51.252;7.470;2022-10-31T11:41:15;17.33;;;5.93;;
27438;SDS011;14887;51.252;7.470;2022-10-31T11:43:49;20.00;;;5.23;;
27438;SDS011;14887;51.252;7.470;2022-10-31T11:46:18;15.50;;;5.47;;
27438;SDS011;14887;51.252;7.470;2022-10-31T11:48:49;14.43;;;4.70;;
27438;SDS011;14887;51.252;7.470;2022-10-31T11:51:30;12.13;;;5.40;;
27438;SDS011;14887;51.252;7.470;2022-10-31T11:53:57;16.10;;;5.13;;
27438;SDS011;14887;51.252;7.470;2022-10-31T11:56:24;17.97;;;5.57;;
27438;SDS011;14887;51.252;7.470;2022-10-31T11:58:57;23.47;;;4.70;;
27438;SDS011;14887;51.252;7.470;2022-10-31T12:01:25;14.13;;;5.80;;
27438;SDS011;14887;51.252;7.470;2022-10-31T12:03:54;19.53;;;6.00;;
27438;SDS011;14887;51.252;7.470;2022-10-31T12:06:27;9.13;;;5.30;;
27438;SDS011;14887;51.252;7.470;2022-10-31T12:08:55;15.83;;;5.70;;
27438;SDS011;14887;51.252;7.470;2022-10-31T12:16:36;14.70;;;5.67;;
27438;SDS011;14887;51.252;7.470;2022-10-31T12:19:15;20.97;;;5.63;;
27438;SDS011;14887;51.252;7.470;2022-10-31T12:24:22;18.70;;;5.40;;
27438;SDS011;14887;51.252;7.470;2022-10-31T12:29:41;24.47;;;5.33;;
27438;SDS011;14887;51.252;7.470;2022-10-31T12:34:59;12.73;;;5.03;;
27438;SDS011;14887;51.252;7.470;2022-10-31T12:40:17;22.40;;;5.80;;
27438;SDS011;14887;51.252;7.470;2022-10-31T12:42:55;19.10;;;6.00;;
27438;SDS011;14887;51.252;7.470;2022-10-31T12:45:39;11.57;;;5.30;;
27438;SDS011;14887;51.252;7.470;2022-10-31T12:50:50;14.63;;;6.57;;
27438;SDS011;14887;51.252;7.470;2022-10-31T12:53:27;11.10;;;5.90;;
27438;SDS011;14887;51.252;7.470;2022-10-31T12:56:01;18.67;;;5.40;;
27438;SDS011;14887;51.252;7.470;2022-10-31T12:58:38;16.80;;;6.40;;
27438;SDS011;14887;51.252;7.470;2022-10-31T13:01:12;12.60;;;5.63;;
27438;SDS011;14887;51.252;7.470;2022-10-31T13:03:49;15.00;;;5.20;;
27438;SDS011;14887;51.252;7.470;2022-10-31T13:06:22;20.30;;;6.27;;
27438;SDS011;14887;51.252;7.470;2022-10-31T13:08:53;10.70;;;5.60;;
27438;SDS011;14887;51.252;7.470;2022-10-31T13:11:21;15.03;;;5.40;;
27438;SDS011;14887;51.252;7.470;2022-10-31T13:14:04;22.60;;;5.27;;
27438;SDS011;14887;51.252;7.470;2022-10-31T13:16:35;22.57;;;6.10;;
27438;SDS011;14887;51.252;7.470;2022-10-31T13:19:04;27.57;;;5.73;;
27438;SDS011;14887;51.252;7.470;2022-10-31T13:21:36;17.27;;;5.80;;
27438;SDS011;14887;51.252;7.470;2022-10-31T13:24:04;15.80;;;5.97;;
27438;SDS011;14887;51.252;7.470;2022-10-31T13:26:52;15.40;;;5.70;;
27438;SDS011;14887;51.252;7.470;2022-10-31T13:31:45;17.53;;;6.43;;
27438;SDS011;14887;51.252;7.470;2022-10-31T13:36:45;18.67;;;7.57;;
27438;SDS011;14887;51.252;7.470;2022-10-31T13:39:26;17.60;;;5.97;;
27438;SDS011;14887;51.252;7.470;2022-10-31T13:42:00;17.23;;;4.73;;
27438;SDS011;14887;51.252;7.470;2022-10-31T13:44:28;16.67;;;5.67;;
27438;SDS011;14887;51.252;7.470;2022-10-31T13:46:56;12.50;;;4.70;;
27438;SDS011;14887;51.252;7.470;2022-10-31T13:51:51;12.23;;;4.90;;
27438;SDS011;14887;51.252;7.470;2022-10-31T13:54:31;14.13;;;6.13;;
27438;SDS011;14887;51.252;7.470;2022-10-31T13:56:57;21.87;;;4.93;;
27438;SDS011;14887;51.252;7.470;2022-10-31T13:59:24;15.17;;;5.27;;
27438;SDS011;14887;51.252;7.470;2022-10-31T14:01:53;10.20;;;5.10;;
27438;SDS011;14887;51.252;7.470;2022-10-31T14:09:22;13.60;;;6.23;;
27438;SDS011;14887;51.252;7.470;2022-10-31T14:11:49;12.03;;;4.40;;
27438;SDS011;14887;51.252;7.470;2022-10-31T14:14:16;14.47;;;4.87;;
27438;SDS011;14887;51.252;7.470;2022-10-31T14:16:43;14.00;;;4.70;;
27438;SDS011;14887;51.252;7.470;2022-10-31T14:19:14;13.17;;;4.93;;
27438;SDS011;14887;51.252;7.470;2022-10-31T14:21:42;13.90;;;4.10;;
27438;SDS011;14887;51.252;7.470;2022-10-31T14:27:00;16.47;;;5.80;;
27438;SDS011;14887;51.252;7.470;2022-10-31T14:29:29;20.60;;;4.90;;
27438;SDS011;14887;51.252;7.470;2022-10-31T14:34:35;17.50;;;5.80;;
27438;SDS011;14887;51.252;7.470;2022-10-31T14:39:54;25.53;;;4.77;;
27438;SDS011;14887;51.252;7.470;2022-10-31T14:50:27;19.10;;;4.03;;
27438;SDS011;14887;51.252;7.470;2022-10-31T14:53:00;10.53;;;3.90;;
27438;SDS011;14887;51.252;7.470;2022-10-31T14:55:27;11.00;;;4.40;;
27438;SDS011;14887;51.252;7.470;2022-10-31T14:57:54;7.07;;;3.63;;
27438;SDS011;14887;51.252;7.470;2022-10-31T15:00:22;10.20;;;3.40;;
27438;SDS011;14887;51.252;7.470;2022-10-31T15:05:15;21.93;;;3.77;;
27438;SDS011;14887;51.252;7.470;2022-10-31T15:07:48;17.03;;;3.70;;
27438;SDS011;14887;51.252;7.470;2022-10-31T15:10:25;9.63;;;3.87;;
27438;SDS011;14887;51.252;7.470;2022-10-31T15:12:52;10.03;;;3.33;;
27438;SDS011;14887;51.252;7.470;2022-10-31T15:15:27;11.60;;;3.10;;
27438;SDS011;14887;51.252;7.470;2022-10-31T15:17:54;10.87;;;3.73;;
27438;SDS011;14887;51.252;7.470;2022-10-31T15:20:41;13.87;;;3.80;;
27438;SDS011;14887;51.252;7.470;2022-10-31T15:23:09;9.67;;;3.10;;
27438;SDS011;14887;51.252;7.470;2022-10-31T15:25:36;12.00;;;3.37;;
27438;SDS011;14887;51.252;7.470;2022-10-31T15:28:12;6.20;;;2.83;;
27438;SDS011;14887;51.252;7.470;2022-10-31T15:30:38;8.93;;;3.27;;
27438;SDS011;14887;51.252;7.470;2022-10-31T15:33:16;18.27;;;3.60;;
27438;SDS011;14887;51.252;7.470;2022-10-31T15:35:53;14.97;;;3.53;;
27438;SDS011;14887;51.252;7.470;2022-10-31T15:38:20;14.50;;;5.03;;
27438;SDS011;14887;51.252;7.470;2022-10-31T15:40:53;4.37;;;2.90;;
27438;SDS011;14887;51.252;7.470;2022-10-31T15:43:20;25.77;;;4.00;;
27438;SDS011;14887;51.252;7.470;2022-10-31T15:45:46;8.33;;;3.00;;
27438;SDS011;14887;51.252;7.470;2022-10-31T15:48:16;15.53;;;3.27;;
27438;SDS011;14887;51.252;7.470;2022-10-31T15:50:50;11.10;;;3.03;;
27438;SDS011;14887;51.252;7.470;2022-10-31T15:53:21;10.73;;;4.73;;
27438;SDS011;14887;51.252;7.470;2022-10-31T15:55:50;16.07;;;5.43;;
27438;SDS011;14887;51.252;7.470;2022-10-31T15:58:17;21.57;;;3.50;;
27438;SDS011;14887;51.252;7.470;2022-10-31T16:00:43;10.53;;;3.03;;
27438;SDS011;14887;51.252;7.470;2022-10-31T16:03:20;10.33;;;3.47;;
27438;SDS011;14887;51.252;7.470;2022-10-31T16:05:51;19.53;;;3.47;;
27438;SDS011;14887;51.252;7.470;2022-10-31T16:10:50;8.00;;;3.20;;
27438;SDS011;14887;51.252;7.470;2022-10-31T16:13:16;8.57;;;2.87;;
27438;SDS011;14887;51.252;7.470;2022-10-31T16:15:49;10.57;;;3.13;;
27438;SDS011;14887;51.252;7.470;2022-10-31T16:18:16;8.10;;;2.83;;
27438;SDS011;14887;51.252;7.470;2022-10-31T16:20:47;9.03;;;3.73;;
27438;SDS011;14887;51.252;7.470;2022-10-31T16:23:15;13.97;;;3.30;;
27438;SDS011;14887;51.252;7.470;2022-10-31T16:25:42;11.00;;;2.90;;
27438;SDS011;14887;51.252;7.470;2022-10-31T16:28:19;9.97;;;3.73;;